Macau International Airport
VMMC : now visible

Airfield :











YOU CAN JOIN US ON...

 
LOGIN :

Register | Disclaimer

   EN    FR    IT 

 









Legend :    VFR   Marginal VFR   IFR   Intensive IFR   Very Intensive IFR
Visi :
Ceiling :
>= 8 km
>= 3000ft
5 to 8 km
1000 to 3000 ft
1500m to 5 km
500 to 1000 ft
800 to 1500m
200 to 500 ft
< 800m
< 200 ft
Symbols :   Thunderstorms  Fog  Heavy snow  Heavy precipitations  Wind > 20 kt






- Airport Elevation : 20 ft
- IATA code : MFM


VMMC - Macau International

CURRENT METAR :
  • 022130Z 03012KT 360V060 9999 FEW010 SCT025 28/26 Q0996 TEMPO 3500 SHRA FEW010CB SCT020

EXPIRED METARs :
  • 022100Z 05009KT 020V100 9999 -SHRA FEW009 SCT025 28/26 Q0996 NOSIG
  • 022045Z 06009KT 360V110 9000 -SHRA FEW009 SCT025 28/27 Q0996 RERA TEMPO 3500 SHRA FEW010CB SCT020
  • 022030Z 09007KT 040V150 4800 SHRA FEW009 SCT020 BKN040 28/27 Q0996 TEMPO 2500 SHRA FEW010CB SCT020
  • 022019Z 09007KT 050V150 3500 SHRA FEW009 SCT020 BKN040 28/27 Q0996 NOSIG
  • 022000Z 08006KT 9999 FEW010 SCT025 29/27 Q0996 NOSIG
  • 021930Z 12007KT 9999 FEW010 SCT025 29/27 Q0996 NOSIG
  • 021900Z 13006KT 9999 FEW010 29/27 Q0996 NOSIG

TAF TAF VMMC
Valid from the 02 at 18:00 until the 04 at 00:00 UTC


021700Z 0218/0324 17008KT 9999 FEW015 SCT025
TEMPO 0220/0302 3500 SHRA FEW010CB SCT015
BECMG 0300/0302 10010KT
TEMPO 0308/0315 VRB15G25KT 2500 +TSRA FEW008CB SCT012
ZGZU FIR / Asia



MET'MAP, your aeronautical weather chart ! - Copyright ORBIFLY December 2007 - Disclaimer

ORBIFLY MET'MAP TEAM :

Programming & Development : Alexandra Zaïnal
Concept & original design : Baudouin d'Aumeries
Assistance for programming : Marc-Olivier Méhu
Technical & hardware support : Manuel Goepfert

Contact : metmap@orbifly.com




SOURCES & CREDITS :

   NOAA       Earth
Advisory